Time;durP1;ratioP1;P1;durP2;ratioP2;P2;SDS_P1;SDS_P2;PMS_P1;PMS_P2;Temp;Humidity;BMP_temperature;BMP_pressure;BME280_temperature;BME280_humidity;BME280_pressure;Samples;Min_cycle;Max_cycle;Signal;HPM_P1;HPM_P2
2023/03/19 00:01:23;;;;;;;108.30;41.60;;;;;;;4.25;54.17;100284.46;131207;1253;107631;-80
2023/03/19 00:04:30;;;;;;;63.70;29.20;;;;;;;4.24;54.14;100280.50;131195;1253;107382;-77
2023/03/19 00:07:35;;;;;;;58.50;29.60;;;;;;;4.23;54.17;100280.95;131246;1251;107244;-77
2023/03/19 00:10:41;;;;;;;53.20;27.30;;;;;;;4.18;54.11;100281.14;131434;1253;107357;-76
2023/03/19 00:13:46;;;;;;;47.80;24.50;;;;;;;4.15;54.35;100282.20;131266;1251;107477;-78
2023/03/19 00:16:52;;;;;;;44.90;23.40;;;;;;;4.12;54.33;100281.54;131218;1253;107528;-79
2023/03/19 00:19:58;;;;;;;40.40;21.90;;;;;;;4.08;54.41;100281.12;131236;1261;107677;-78
2023/03/19 00:23:04;;;;;;;32.90;18.20;;;;;;;4.03;54.46;100284.16;131409;1258;107337;-77
2023/03/19 00:26:09;;;;;;;31.70;16.80;;;;;;;3.96;54.42;100277.25;131481;1253;108658;-76
2023/03/19 00:29:15;;;;;;;30.40;16.70;;;;;;;3.90;54.43;100279.98;131269;1255;107518;-78
2023/03/19 00:32:21;;;;;;;31.70;17.00;;;;;;;3.86;54.58;100275.52;131100;1254;107456;-78
2023/03/19 00:35:27;;;;;;;30.80;16.60;;;;;;;3.82;54.65;100274.19;131259;1251;107496;-79
2023/03/19 00:38:33;;;;;;;29.00;16.10;;;;;;;3.76;54.66;100276.52;131245;1253;108671;-79
2023/03/19 00:41:38;;;;;;;32.60;16.60;;;;;;;3.72;54.60;100273.50;131427;1253;107526;-78
2023/03/19 00:44:44;;;;;;;33.90;16.20;;;;;;;3.67;54.73;100273.84;131318;1248;107379;-78
2023/03/19 00:47:49;;;;;;;31.90;16.20;;;;;;;3.61;54.69;100271.98;131252;1253;107400;-78
2023/03/19 00:50:55;;;;;;;29.70;15.40;;;;;;;3.58;54.64;100272.54;131229;1253;107495;-77
2023/03/19 00:54:01;;;;;;;32.30;17.10;;;;;;;3.57;54.75;100271.27;131332;1251;107492;-78
2023/03/19 00:57:07;;;;;;;35.90;19.90;;;;;;;3.52;54.83;100273.64;131363;1248;107348;-79
2023/03/19 01:00:14;;;;;;;39.20;20.90;;;;;;;3.47;54.91;100276.63;131406;1248;107612;-76
2023/03/19 01:03:20;;;;;;;34.30;17.30;;;;;;;3.44;54.96;100281.04;131487;1261;106805;-76
2023/03/19 01:06:26;;;;;;;34.90;18.20;;;;;;;3.39;55.03;100281.63;131249;1254;107222;-79
2023/03/19 01:09:34;;;;;;;40.90;21.30;;;;;;;3.32;54.93;100282.56;131179;1260;108585;-79
2023/03/19 01:12:40;;;;;;;40.30;21.70;;;;;;;3.28;54.99;100285.33;131206;1261;106680;-77
2023/03/19 01:15:46;;;;;;;38.70;20.20;;;;;;;3.23;55.06;100287.09;131103;1256;107514;-78
2023/03/19 01:18:52;;;;;;;34.40;18.70;;;;;;;3.18;55.09;100282.88;131315;1256;106638;-77
2023/03/19 01:21:57;;;;;;;29.30;15.50;;;;;;;3.13;55.27;100280.58;131250;1253;107600;-76
2023/03/19 01:25:03;;;;;;;30.00;16.00;;;;;;;3.09;55.32;100279.61;131044;1257;107428;-78
2023/03/19 01:28:09;;;;;;;30.70;15.80;;;;;;;3.04;55.29;100278.71;131198;1253;107420;-78
2023/03/19 01:31:17;;;;;;;30.00;14.90;;;;;;;3.00;55.35;100280.20;131197;1251;106474;-78
2023/03/19 01:34:31;;;;;;;29.80;15.20;;;;;;;2.95;55.47;100276.70;131208;1254;107445;-77
2023/03/19 01:37:46;;;;;;;30.50;15.50;;;;;;;2.89;55.49;100273.92;131213;1253;107516;-79
2023/03/19 01:40:52;;;;;;;29.50;15.50;;;;;;;2.87;55.60;100274.77;131354;1248;108686;-77
2023/03/19 01:43:58;;;;;;;30.50;15.60;;;;;;;2.83;55.65;100274.84;131450;1253;108515;-78
2023/03/19 01:47:30;;;;;;;29.90;15.50;;;;;;;2.77;55.90;100275.62;131334;1253;107449;-79
2023/03/19 01:51:02;;;;;;;30.10;14.40;;;;;;;2.76;55.83;100279.04;131385;1254;108620;-78
2023/03/19 01:54:25;;;;;;;29.80;15.60;;;;;;;2.72;55.79;100278.95;131384;1253;107481;-79
2023/03/19 01:57:58;;;;;;;28.80;15.60;;;;;;;2.67;55.95;100276.61;131215;1251;107331;-78
2023/03/19 02:01:17;;;;;;;28.20;14.60;;;;;;;2.64;55.89;100275.83;131396;1253;107956;-75
2023/03/19 02:04:27;;;;;;;32.30;16.80;;;;;;;2.61;56.12;100276.50;131312;1254;107527;-78
2023/03/19 02:07:36;;;;;;;36.90;17.90;;;;;;;2.55;56.27;100269.00;131311;1261;108600;-78
2023/03/19 02:10:42;;;;;;;36.10;19.20;;;;;;;2.51;56.17;100272.91;131100;1254;107524;-79
2023/03/19 02:13:48;;;;;;;32.50;17.10;;;;;;;2.49;56.29;100276.93;131242;1253;109269;-78
2023/03/19 02:16:54;;;;;;;30.00;15.40;;;;;;;2.47;56.34;100279.02;131085;1254;132616;-78
2023/03/19 02:20:08;;;;;;;29.60;15.00;;;;;;;2.45;56.52;100280.73;131075;1254;108710;-78
2023/03/19 02:23:23;;;;;;;28.40;14.50;;;;;;;2.43;56.57;100277.86;131139;1259;107539;-78
2023/03/19 02:26:33;;;;;;;28.20;14.60;;;;;;;2.40;56.58;100281.41;131193;1253;107486;-77
2023/03/19 02:29:40;;;;;;;29.50;14.40;;;;;;;2.39;56.65;100286.03;131174;1253;107500;-78
2023/03/19 02:32:46;;;;;;;27.30;14.30;;;;;;;2.39;56.82;100286.90;131331;1253;107360;-76
2023/03/19 02:35:54;;;;;;;28.30;14.00;;;;;;;2.39;56.84;100288.14;131252;1251;106265;-78
2023/03/19 02:39:03;;;;;;;29.00;14.50;;;;;;;2.38;56.96;100284.52;131453;1254;107514;-78
2023/03/19 02:42:11;;;;;;;28.50;14.70;;;;;;;2.35;56.86;100280.63;131505;1254;107556;-77
2023/03/19 02:45:17;;;;;;;27.20;14.60;;;;;;;2.35;56.86;100280.44;131246;1264;107514;-75
2023/03/19 02:48:23;;;;;;;26.90;14.30;;;;;;;2.35;57.10;100283.95;131204;1263;107827;-76
2023/03/19 02:51:28;;;;;;;28.30;14.50;;;;;;;2.36;57.04;100282.67;131238;1254;106620;-77
2023/03/19 02:54:34;;;;;;;30.90;14.40;;;;;;;2.38;57.27;100285.95;131355;1257;107548;-80
2023/03/19 02:57:39;;;;;;;31.50;14.80;;;;;;;2.36;57.08;100286.00;131465;1255;108066;-76
2023/03/19 03:00:46;;;;;;;31.80;16.60;;;;;;;2.37;57.28;100283.30;131134;1251;107590;-78
2023/03/19 03:03:51;;;;;;;43.50;20.50;;;;;;;2.38;57.16;100275.73;131359;1251;106536;-77
2023/03/19 03:06:57;;;;;;;35.90;18.90;;;;;;;2.39;57.34;100282.17;131296;1261;107524;-78
2023/03/19 03:10:03;;;;;;;30.40;15.90;;;;;;;2.39;57.21;100280.77;131283;1254;107559;-78
2023/03/19 03:13:09;;;;;;;28.10;14.90;;;;;;;2.40;57.32;100276.98;131464;1260;107413;-79
2023/03/19 03:16:16;;;;;;;27.40;14.60;;;;;;;2.43;57.53;100279.48;131358;1254;107509;-78
2023/03/19 03:19:22;;;;;;;29.90;14.70;;;;;;;2.45;57.49;100278.81;131252;1254;107558;-78
2023/03/19 03:22:27;;;;;;;28.50;14.80;;;;;;;2.45;57.54;100278.94;131402;1254;107348;-78
2023/03/19 03:25:33;;;;;;;24.70;13.60;;;;;;;2.46;57.51;100278.35;131192;1251;107435;-78
2023/03/19 03:28:39;;;;;;;23.60;13.70;;;;;;;2.48;57.68;100273.47;131285;1254;107423;-77
2023/03/19 03:31:45;;;;;;;26.10;14.00;;;;;;;2.49;57.51;100272.91;131227;1259;107377;-77
2023/03/19 03:34:50;;;;;;;25.00;14.00;;;;;;;2.52;57.57;100274.83;131276;1263;107510;-77
2023/03/19 03:37:56;;;;;;;30.20;17.00;;;;;;;2.55;57.57;100274.80;131122;1257;107491;-78
2023/03/19 03:41:03;;;;;;;30.60;16.80;;;;;;;2.56;57.73;100272.64;131206;1254;107337;-79
2023/03/19 03:44:09;;;;;;;30.70;16.20;;;;;;;2.56;57.66;100265.42;131103;1257;107514;-80
2023/03/19 03:47:17;;;;;;;29.90;16.60;;;;;;;2.58;57.74;100266.51;131106;1264;107471;-78
2023/03/19 03:50:23;;;;;;;26.10;14.60;;;;;;;2.63;57.71;100264.11;131181;1253;107625;-79
2023/03/19 03:53:30;;;;;;;27.30;14.90;;;;;;;2.64;57.78;100265.05;131262;1259;107453;-78
2023/03/19 03:56:36;;;;;;;26.30;14.40;;;;;;;2.63;57.90;100267.58;131210;1261;107511;-76
2023/03/19 03:59:41;;;;;;;27.90;14.60;;;;;;;2.62;57.74;100271.70;131320;1253;107451;-78
2023/03/19 04:02:47;;;;;;;25.90;14.50;;;;;;;2.62;57.87;100271.90;131087;1254;106257;-78
2023/03/19 04:05:54;;;;;;;27.30;15.00;;;;;;;2.62;57.80;100271.18;131205;1254;107277;-77
2023/03/19 04:09:01;;;;;;;27.60;15.50;;;;;;;2.61;57.89;100273.67;131205;1261;107615;-77
2023/03/19 04:12:07;;;;;;;31.20;17.40;;;;;;;2.59;57.77;100272.21;131169;1248;107267;-78
2023/03/19 04:15:14;;;;;;;28.80;16.00;;;;;;;2.61;57.88;100273.35;131211;1248;107525;-77
2023/03/19 04:18:20;;;;;;;27.30;15.70;;;;;;;2.60;57.84;100271.31;131239;1253;107522;-78
2023/03/19 04:21:27;;;;;;;32.20;18.60;;;;;;;2.61;58.06;100273.19;131685;1261;107575;-75
2023/03/19 04:24:33;;;;;;;29.10;16.20;;;;;;;2.62;57.94;100271.00;131219;1261;108658;-77
2023/03/19 04:27:38;;;;;;;27.20;15.70;;;;;;;2.61;58.01;100278.23;131239;1257;107356;-75
2023/03/19 04:30:46;;;;;;;28.90;15.30;;;;;;;2.62;57.90;100281.73;131366;1253;107520;-76
2023/03/19 04:33:52;;;;;;;25.00;14.20;;;;;;;2.60;58.01;100284.31;131193;1254;107460;-78
2023/03/19 04:36:58;;;;;;;25.90;14.80;;;;;;;2.56;58.08;100288.76;131301;1254;107365;-76
2023/03/19 04:40:04;;;;;;;26.00;14.60;;;;;;;2.56;58.19;100288.98;131432;1254;107520;-76
2023/03/19 04:43:11;;;;;;;27.20;15.30;;;;;;;2.54;58.27;100289.75;131256;1253;107474;-77
2023/03/19 04:46:17;;;;;;;27.30;14.30;;;;;;;2.52;58.10;100288.69;131242;1261;107423;-77
2023/03/19 04:49:24;;;;;;;33.40;16.20;;;;;;;2.48;58.41;100291.73;131071;1254;107494;-77
2023/03/19 04:52:36;;;;;;;27.30;15.60;;;;;;;2.48;58.39;100290.88;131145;1261;107465;-77
2023/03/19 04:55:41;;;;;;;27.20;14.90;;;;;;;2.50;58.43;100288.45;131133;1261;107541;-77
2023/03/19 04:58:52;;;;;;;29.50;15.90;;;;;;;2.55;58.28;100285.16;131169;1254;107527;-78
2023/03/19 05:01:58;;;;;;;26.50;15.40;;;;;;;2.61;58.20;100286.52;131312;1254;107562;-77
2023/03/19 05:05:04;;;;;;;26.40;14.70;;;;;;;2.69;58.39;100282.65;131381;1254;108626;-76
2023/03/19 05:08:12;;;;;;;26.10;14.80;;;;;;;2.76;58.41;100280.96;131234;1248;107327;-76
2023/03/19 05:11:18;;;;;;;26.80;14.30;;;;;;;2.83;58.39;100284.52;131197;1254;107375;-77
2023/03/19 05:14:45;;;;;;;35.00;17.90;;;;;;;2.91;58.28;100285.71;131242;1248;106510;-78
2023/03/19 05:17:58;;;;;;;29.90;15.80;;;;;;;3.01;58.28;100284.17;131170;1261;107606;-78
2023/03/19 05:21:15;;;;;;;30.60;15.70;;;;;;;3.11;58.19;100282.94;131413;1257;107527;-78
2023/03/19 05:24:22;;;;;;;26.00;15.60;;;;;;;3.21;58.46;100288.12;131324;1254;107527;-77
2023/03/19 05:27:29;;;;;;;25.10;14.50;;;;;;;3.30;58.41;100287.16;131344;1248;106444;-79
2023/03/19 05:30:46;;;;;;;28.60;16.00;;;;;;;3.40;58.41;100287.36;131496;1248;107389;-76
2023/03/19 05:34:15;;;;;;;27.10;15.30;;;;;;;3.48;58.33;100284.66;131483;1248;107502;-78
2023/03/19 05:37:21;;;;;;;27.50;15.00;;;;;;;3.59;58.37;100285.52;131419;1253;107491;-77
2023/03/19 05:40:33;;;;;;;34.50;15.90;;;;;;;3.68;58.38;100291.75;131466;1251;107500;-77
2023/03/19 05:43:41;;;;;;;28.30;15.80;;;;;;;3.79;58.54;100294.27;131263;1251;107411;-77
2023/03/19 05:46:52;;;;;;;27.80;15.40;;;;;;;3.92;58.33;100290.40;131359;1253;107407;-77
2023/03/19 05:49:58;;;;;;;28.00;16.40;;;;;;;4.04;58.21;100281.75;131342;1254;107374;-76
2023/03/19 05:53:04;;;;;;;25.70;15.60;;;;;;;4.16;58.29;100283.72;131404;1251;107495;-76
2023/03/19 05:56:12;;;;;;;25.70;15.50;;;;;;;4.28;58.10;100279.00;131475;1262;108701;-78
2023/03/19 05:59:28;;;;;;;29.30;17.50;;;;;;;4.43;58.12;100277.69;131376;1248;107502;-78
2023/03/19 06:02:57;;;;;;;29.80;16.90;;;;;;;4.59;58.11;100275.09;131535;1248;107500;-75
2023/03/19 06:06:14;;;;;;;30.20;18.40;;;;;;;4.76;58.09;100277.91;131315;1254;108742;-78
2023/03/19 06:09:24;;;;;;;28.20;17.30;;;;;;;4.92;58.06;100273.20;131702;1251;107686;-77
2023/03/19 06:12:35;;;;;;;29.10;17.10;;;;;;;5.06;57.90;100275.97;131406;1253;107796;-78
2023/03/19 06:15:56;;;;;;;27.60;16.40;;;;;;;5.22;57.96;100276.88;131130;1254;107444;-77
2023/03/19 06:19:06;;;;;;;27.90;17.40;;;;;;;5.36;57.87;100285.48;131241;1258;107544;-78
2023/03/19 06:22:12;;;;;;;27.90;16.60;;;;;;;5.48;57.93;100282.45;131129;1255;107553;-78
2023/03/19 06:25:20;;;;;;;27.50;16.40;;;;;;;5.59;57.95;100283.94;131546;1248;107484;-76
2023/03/19 06:28:26;;;;;;;27.20;16.40;;;;;;;5.67;57.60;100286.11;131316;1254;108662;-77
2023/03/19 06:31:32;;;;;;;29.70;18.20;;;;;;;5.73;57.82;100285.79;131207;1254;107529;-78
2023/03/19 06:34:46;;;;;;;29.70;17.80;;;;;;;5.79;57.47;100287.64;131201;1253;108642;-75
2023/03/19 06:37:52;;;;;;;35.50;20.90;;;;;;;5.84;57.53;100294.30;131067;1254;108663;-76
2023/03/19 06:40:57;;;;;;;28.50;17.30;;;;;;;5.87;57.31;100297.58;131200;1248;107436;-77
2023/03/19 06:44:03;;;;;;;30.10;17.40;;;;;;;5.91;57.56;100304.54;131181;1253;108061;-77
2023/03/19 06:47:09;;;;;;;30.10;17.10;;;;;;;5.94;57.62;100310.80;131191;1254;107571;-76
2023/03/19 06:50:17;;;;;;;30.40;17.70;;;;;;;6.00;57.54;100311.58;131121;1254;107717;-78
2023/03/19 06:53:22;;;;;;;31.10;17.70;;;;;;;6.08;57.58;100310.75;131214;1249;107307;-77
2023/03/19 06:56:28;;;;;;;57.80;29.30;;;;;;;6.18;57.25;100307.39;131225;1254;108695;-79
2023/03/19 06:59:33;;;;;;;44.20;24.90;;;;;;;6.26;57.53;100302.12;131235;1255;107168;-77
2023/03/19 07:02:39;;;;;;;68.90;36.40;;;;;;;6.36;57.40;100305.05;131604;1248;107523;-80
2023/03/19 07:05:45;;;;;;;36.70;21.10;;;;;;;6.47;57.26;100309.08;131190;1261;107531;-77
2023/03/19 07:08:50;;;;;;;47.30;26.30;;;;;;;6.58;57.18;100306.39;131163;1253;107514;-80
2023/03/19 07:11:56;;;;;;;51.40;28.70;;;;;;;6.71;57.08;100309.38;131328;1254;108122;-79
2023/03/19 07:15:03;;;;;;;36.40;22.30;;;;;;;6.84;57.01;100311.14;131137;1264;106745;-81
2023/03/19 07:18:09;;;;;;;77.70;45.80;;;;;;;6.98;57.24;100310.14;131461;1251;107455;-80
2023/03/19 07:21:14;;;;;;;40.60;24.00;;;;;;;7.13;56.92;100312.98;131164;1250;107459;-79
2023/03/19 07:24:20;;;;;;;74.40;41.50;;;;;;;7.28;57.00;100312.41;131163;1249;107571;-80
2023/03/19 07:27:25;;;;;;;37.00;22.30;;;;;;;7.44;57.21;100314.09;131100;1254;107594;-80
2023/03/19 07:30:32;;;;;;;30.50;18.20;;;;;;;7.60;56.95;100320.27;131090;1254;106173;-80
2023/03/19 07:33:38;;;;;;;31.30;17.90;;;;;;;7.79;57.07;100317.45;131177;1264;107485;-79
2023/03/19 07:36:43;;;;;;;28.00;17.20;;;;;;;7.98;56.99;100318.46;131291;1251;107328;-80
2023/03/19 07:39:49;;;;;;;28.50;18.30;;;;;;;8.17;56.94;100320.50;131505;1261;107600;-75
2023/03/19 07:42:55;;;;;;;26.50;17.10;;;;;;;8.34;56.65;100315.23;131117;1251;107569;-74
2023/03/19 07:46:02;;;;;;;25.70;16.40;;;;;;;8.47;56.37;100315.14;131591;1253;108651;-77
2023/03/19 07:49:07;;;;;;;84.60;50.80;;;;;;;8.57;56.27;100325.43;131364;1254;107563;-75
2023/03/19 07:52:13;;;;;;;35.30;20.60;;;;;;;8.66;56.14;100321.27;131227;1254;107558;-76
2023/03/19 07:55:20;;;;;;;29.10;17.60;;;;;;;8.78;56.07;100319.70;131309;1254;107352;-77
2023/03/19 07:58:26;;;;;;;23.10;16.10;;;;;;;8.88;55.48;100323.20;131103;1254;107279;-76
2023/03/19 08:01:31;;;;;;;23.40;15.10;;;;;;;8.96;56.21;100323.52;131285;1254;107536;-77
2023/03/19 08:04:37;;;;;;;28.60;18.20;;;;;;;9.09;55.75;100319.33;131115;1253;107540;-80
2023/03/19 08:07:43;;;;;;;25.70;16.20;;;;;;;9.23;55.60;100320.45;131385;1254;105646;-80
2023/03/19 08:10:49;;;;;;;26.30;17.40;;;;;;;9.41;55.46;100319.69;131306;1254;107461;-77
2023/03/19 08:13:55;;;;;;;26.60;16.60;;;;;;;9.62;55.57;100312.63;131312;1253;107510;-78
2023/03/19 08:17:00;;;;;;;27.30;16.50;;;;;;;9.84;55.05;100305.69;131302;1261;107610;-77
2023/03/19 08:20:09;;;;;;;29.10;20.40;;;;;;;10.00;54.67;100303.48;131455;1254;109463;-76
2023/03/19 08:23:15;;;;;;;29.40;19.20;;;;;;;10.14;54.82;100305.11;131454;1254;107931;-79
2023/03/19 08:26:21;;;;;;;24.40;16.20;;;;;;;10.27;54.89;100303.19;131445;1248;107284;-79
2023/03/19 08:29:27;;;;;;;81.90;59.00;;;;;;;10.39;55.00;100296.31;131211;1252;105490;-76
2023/03/19 08:32:32;;;;;;;57.00;35.80;;;;;;;10.44;54.57;100293.73;131271;1252;107452;-77
2023/03/19 08:35:38;;;;;;;36.10;23.00;;;;;;;10.47;54.66;100296.91;131367;1253;107559;-76
2023/03/19 08:38:43;;;;;;;33.80;21.10;;;;;;;10.52;54.69;100299.73;131421;1253;107534;-76
2023/03/19 08:41:49;;;;;;;33.00;21.30;;;;;;;10.61;54.70;100299.80;131331;1251;107454;-76
2023/03/19 08:44:54;;;;;;;33.60;22.30;;;;;;;10.71;54.27;100302.25;131277;1254;107651;-76
2023/03/19 08:48:00;;;;;;;105.60;73.80;;;;;;;10.80;54.33;100303.09;131160;1254;107601;-75
2023/03/19 08:51:06;;;;;;;45.90;30.90;;;;;;;10.89;54.03;100300.98;131199;1252;107236;-77
2023/03/19 08:54:12;;;;;;;35.50;24.70;;;;;;;10.98;54.17;100301.30;131361;1253;106491;-78
2023/03/19 08:57:18;;;;;;;33.00;22.50;;;;;;;11.07;54.18;100305.43;131377;1253;107220;-78
2023/03/19 09:00:24;;;;;;;40.50;26.60;;;;;;;11.14;54.22;100305.26;131500;1254;107587;-77
2023/03/19 09:03:29;;;;;;;69.50;46.90;;;;;;;11.20;54.04;100305.50;131334;1264;107475;-82
2023/03/19 09:06:35;;;;;;;105.40;71.10;;;;;;;11.28;54.17;100305.05;131351;1253;106802;-80
2023/03/19 09:09:42;;;;;;;89.90;57.70;;;;;;;11.36;53.61;100304.94;131525;1248;107254;-79
2023/03/19 09:12:48;;;;;;;122.60;77.30;;;;;;;11.45;53.50;100301.02;131468;1253;107588;-81
2023/03/19 09:15:53;;;;;;;42.40;25.70;;;;;;;11.54;53.72;100299.52;131643;1253;107409;-78
2023/03/19 09:18:59;;;;;;;29.40;20.00;;;;;;;11.62;53.26;100300.65;131261;1248;107252;-75
2023/03/19 09:22:05;;;;;;;26.90;17.20;;;;;;;11.70;53.21;100297.39;131294;1248;107507;-75
2023/03/19 09:25:11;;;;;;;24.20;16.80;;;;;;;11.77;53.04;100294.45;131221;1253;107525;-78
2023/03/19 09:28:17;;;;;;;46.10;33.40;;;;;;;11.88;53.23;100294.78;131438;1253;107911;-77
2023/03/19 09:31:22;;;;;;;26.40;17.30;;;;;;;12.01;53.14;100290.60;131334;1253;107630;-78
2023/03/19 09:34:28;;;;;;;24.10;16.30;;;;;;;12.15;53.02;100289.23;131432;1253;107352;-77
2023/03/19 09:37:33;;;;;;;22.50;15.20;;;;;;;12.29;52.91;100283.54;131695;1250;107623;-77
2023/03/19 09:40:42;;;;;;;21.20;14.80;;;;;;;12.44;52.81;100283.56;131366;1253;109408;-77
2023/03/19 09:44:00;;;;;;;43.50;28.60;;;;;;;12.60;52.45;100279.90;131343;1252;108623;-77
2023/03/19 09:47:24;;;;;;;26.40;18.60;;;;;;;12.74;52.21;100279.60;131281;1253;107328;-78
2023/03/19 09:50:33;;;;;;;21.90;16.10;;;;;;;12.90;52.22;100282.64;131387;1248;107518;-77
2023/03/19 09:53:47;;;;;;;21.00;14.50;;;;;;;13.03;51.88;100284.52;131208;1250;107381;-77
2023/03/19 09:56:52;;;;;;;20.60;15.50;;;;;;;13.11;51.84;100284.58;131273;1254;107495;-76
2023/03/19 09:59:58;;;;;;;46.90;39.10;;;;;;;13.15;51.08;100284.56;131382;1254;107517;-76
2023/03/19 10:03:13;;;;;;;25.10;17.60;;;;;;;13.15;51.51;100281.69;131226;1253;107511;-79
2023/03/19 10:06:30;;;;;;;25.20;16.80;;;;;;;13.18;51.51;100281.41;131212;1254;107367;-76
2023/03/19 10:09:44;;;;;;;23.80;15.70;;;;;;;13.15;51.43;100281.89;131264;1248;107207;-79
2023/03/19 10:12:58;;;;;;;27.40;19.10;;;;;;;13.18;51.51;100278.74;131320;1253;106773;-77
2023/03/19 10:16:11;;;;;;;22.10;15.20;;;;;;;13.25;51.29;100279.91;131352;1251;107353;-77
2023/03/19 10:19:24;;;;;;;18.90;13.60;;;;;;;13.33;51.25;100279.90;131270;1253;107386;-78
2023/03/19 10:22:33;;;;;;;20.40;14.40;;;;;;;13.43;51.12;100281.74;131319;1253;107510;-77
2023/03/19 10:25:43;;;;;;;21.00;14.80;;;;;;;13.49;51.20;100279.44;131219;1254;107894;-77
2023/03/19 10:28:59;;;;;;;20.70;14.50;;;;;;;13.54;51.08;100280.52;131266;1261;107378;-76
2023/03/19 10:32:13;;;;;;;19.90;14.50;;;;;;;13.53;50.93;100285.41;131229;1252;107541;-76
2023/03/19 10:35:23;;;;;;;21.00;14.90;;;;;;;13.57;50.88;100282.27;131165;1253;107574;-76
2023/03/19 10:38:32;;;;;;;22.50;14.80;;;;;;;13.62;50.68;100277.14;131324;1253;107515;-77
2023/03/19 10:41:49;;;;;;;20.70;14.20;;;;;;;13.63;50.24;100276.29;131247;1248;107263;-78
2023/03/19 10:45:00;;;;;;;19.40;13.30;;;;;;;13.63;50.66;100270.20;131290;1254;107339;-77
2023/03/19 10:48:11;;;;;;;20.30;14.40;;;;;;;13.62;50.56;100272.10;131394;1248;107318;-76
2023/03/19 10:51:21;;;;;;;21.10;14.80;;;;;;;13.60;50.35;100273.08;131381;1248;108743;-76
2023/03/19 10:54:29;;;;;;;48.10;27.40;;;;;;;13.56;50.22;100271.13;131200;1253;107382;-76
2023/03/19 10:57:35;;;;;;;25.40;16.70;;;;;;;13.53;50.58;100272.50;131199;1253;107375;-78
2023/03/19 11:00:40;;;;;;;19.80;14.60;;;;;;;13.56;50.37;100269.20;131235;1253;107549;-76
2023/03/19 11:03:55;;;;;;;24.40;17.10;;;;;;;13.60;50.40;100264.64;131153;1253;107510;-76
2023/03/19 11:07:11;;;;;;;25.10;15.10;;;;;;;13.69;49.99;100254.29;131180;1253;107517;-77
2023/03/19 11:10:19;;;;;;;19.70;14.30;;;;;;;13.82;50.06;100252.52;131056;1256;106503;-77
2023/03/19 11:13:27;;;;;;;20.10;14.40;;;;;;;13.93;49.95;100251.77;131365;1250;107543;-77
2023/03/19 11:16:32;;;;;;;76.00;40.50;;;;;;;14.02;49.38;100249.52;131353;1253;107470;-77
2023/03/19 11:19:43;;;;;;;31.50;19.00;;;;;;;14.09;49.40;100239.17;131358;1253;107521;-77
2023/03/19 11:22:51;;;;;;;22.90;15.10;;;;;;;14.17;49.15;100232.96;131417;1251;106511;-78
2023/03/19 11:26:01;;;;;;;21.00;14.00;;;;;;;14.25;49.27;100240.08;131275;1251;107211;-78
2023/03/19 11:29:09;;;;;;;20.30;14.00;;;;;;;14.33;49.13;100234.84;131223;1253;107890;-78
2023/03/19 11:32:37;;;;;;;20.50;16.00;;;;;;;14.39;49.46;100232.40;131175;1253;107264;-78
2023/03/19 11:35:49;;;;;;;17.30;13.00;;;;;;;14.40;49.47;100225.22;131221;1261;107520;-78
2023/03/19 11:39:18;;;;;;;17.00;13.00;;;;;;;14.41;49.15;100217.42;131431;1256;107348;-79
2023/03/19 11:42:42;;;;;;;17.60;12.80;;;;;;;14.40;49.06;100212.95;131406;1248;108638;-78
2023/03/19 11:46:01;;;;;;;17.30;12.40;;;;;;;14.43;48.99;100215.23;131510;1251;107369;-79
2023/03/19 11:49:17;;;;;;;16.00;11.90;;;;;;;14.51;48.84;100213.66;131510;1262;107777;-78
2023/03/19 11:52:31;;;;;;;17.20;12.30;;;;;;;14.60;48.79;100211.75;131468;1251;107448;-78
2023/03/19 11:55:42;;;;;;;14.80;11.00;;;;;;;14.72;48.66;100216.95;131449;1251;107461;-78
2023/03/19 11:59:08;;;;;;;14.70;10.60;;;;;;;14.84;48.40;100215.67;131475;1248;107510;-79
2023/03/19 12:02:58;;;;;;;15.20;10.70;;;;;;;14.98;48.09;100211.50;131411;1251;106741;-77
2023/03/19 12:06:10;;;;;;;15.90;11.50;;;;;;;15.03;47.83;100208.90;130532;1260;107482;-77
2023/03/19 12:09:26;;;;;;;13.90;10.60;;;;;;;15.11;48.14;100211.45;131233;1253;106678;-78
2023/03/19 12:12:40;;;;;;;14.30;9.90;;;;;;;15.14;47.66;100201.20;131267;1252;107618;-77
2023/03/19 12:15:56;;;;;;;13.30;9.50;;;;;;;15.20;47.84;100196.78;131416;1253;107532;-77
2023/03/19 12:19:18;;;;;;;13.60;9.50;;;;;;;15.25;47.77;100187.27;131347;1248;107612;-77
2023/03/19 12:22:40;;;;;;;14.40;10.20;;;;;;;15.30;47.67;100179.06;131348;1255;106616;-78
2023/03/19 12:26:03;;;;;;;12.20;9.40;;;;;;;15.38;47.66;100182.77;131313;1252;107445;-77
2023/03/19 12:29:21;;;;;;;12.60;9.70;;;;;;;15.44;46.91;100184.13;131411;1252;107416;-78
2023/03/19 12:32:41;;;;;;;13.00;10.30;;;;;;;15.51;47.24;100176.48;131331;1248;107674;-78
2023/03/19 12:35:50;;;;;;;14.90;10.80;;;;;;;15.53;46.78;100173.33;131381;1253;107517;-77
2023/03/19 12:39:02;;;;;;;13.00;9.70;;;;;;;15.56;47.17;100177.83;131176;1248;107374;-78
2023/03/19 12:42:13;;;;;;;13.00;9.90;;;;;;;15.61;47.05;100173.50;131290;1252;107568;-77
2023/03/19 12:45:28;;;;;;;14.50;10.20;;;;;;;15.62;46.77;100170.42;131444;1251;107350;-77
2023/03/19 12:48:40;;;;;;;12.10;9.00;;;;;;;15.57;46.57;100166.21;131461;1253;107356;-77
2023/03/19 12:51:55;;;;;;;11.40;8.90;;;;;;;15.55;46.50;100177.20;131376;1253;107502;-78
2023/03/19 12:55:09;;;;;;;11.60;8.80;;;;;;;15.53;46.53;100173.04;131385;1250;107402;-78
2023/03/19 12:58:20;;;;;;;12.20;9.00;;;;;;;15.48;46.04;100165.02;131379;1248;107511;-77
2023/03/19 13:01:31;;;;;;;12.10;9.00;;;;;;;15.42;45.89;100168.45;131471;1248;108624;-77
2023/03/19 13:04:52;;;;;;;12.20;9.10;;;;;;;15.39;45.89;100167.81;131144;1247;107553;-78
2023/03/19 13:08:03;;;;;;;11.00;8.60;;;;;;;15.38;46.00;100166.81;131169;1250;107528;-75
2023/03/19 13:11:13;;;;;;;12.60;9.20;;;;;;;15.40;45.87;100164.63;131207;1253;107361;-77
2023/03/19 13:14:27;;;;;;;11.90;8.80;;;;;;;15.42;45.68;100162.52;131270;1253;107896;-78
2023/03/19 13:17:40;;;;;;;13.90;9.50;;;;;;;15.44;45.57;100154.63;131262;1253;107355;-78
2023/03/19 13:21:01;;;;;;;10.80;8.30;;;;;;;15.46;45.59;100157.77;131348;1252;107371;-76
2023/03/19 13:24:19;;;;;;;11.10;8.30;;;;;;;15.46;45.17;100163.44;131383;1253;107539;-76
2023/03/19 13:27:30;;;;;;;13.40;10.40;;;;;;;15.50;45.12;100157.60;131163;1253;107684;-78
2023/03/19 13:30:38;;;;;;;14.60;10.50;;;;;;;15.52;45.01;100151.79;131410;1253;107641;-78
2023/03/19 13:34:00;;;;;;;11.60;8.50;;;;;;;15.54;44.82;100153.90;131327;1250;107544;-76
2023/03/19 13:37:13;;;;;;;11.80;9.00;;;;;;;15.58;44.86;100152.48;131081;1253;107405;-77
2023/03/19 13:40:40;;;;;;;12.30;8.40;;;;;;;15.66;44.55;100158.55;131047;1255;106435;-77
2023/03/19 13:43:53;;;;;;;10.60;8.20;;;;;;;15.70;44.47;100160.46;130931;1256;107682;-76
2023/03/19 13:47:03;;;;;;;10.90;8.50;;;;;;;15.74;44.42;100160.52;130924;1254;105712;-76
2023/03/19 13:50:26;;;;;;;11.20;8.70;;;;;;;15.69;44.10;100153.99;131085;1253;107593;-76
2023/03/19 13:53:39;;;;;;;13.30;8.50;;;;;;;15.62;43.72;100155.52;131106;1251;107491;-75
2023/03/19 13:57:17;;;;;;;12.90;9.80;;;;;;;15.51;44.04;100153.66;131240;1253;106665;-77
2023/03/19 14:01:06;;;;;;;11.20;8.80;;;;;;;15.43;44.23;100147.67;131133;1253;107535;-76
2023/03/19 14:04:21;;;;;;;14.30;10.40;;;;;;;15.35;44.21;100144.41;131042;1259;107384;-77
2023/03/19 14:07:30;;;;;;;11.30;8.80;;;;;;;15.28;44.33;100138.33;131465;1253;107482;-78
2023/03/19 14:10:37;;;;;;;40.30;29.90;;;;;;;15.23;44.04;100131.86;131418;1251;108666;-77